sensor_id;sensor_type;location;lat;lon;timestamp;temperature;humidity
45012;DHT22;63444;48.148;11.542;2022-12-29T00:01:56;6.20;99.90
45012;DHT22;63444;48.148;11.542;2022-12-29T00:04:23;6.00;99.90
45012;DHT22;63444;48.148;11.542;2022-12-29T00:06:50;6.10;99.90
45012;DHT22;63444;48.148;11.542;2022-12-29T00:09:17;6.00;99.90
45012;DHT22;63444;48.148;11.542;2022-12-29T00:11:43;6.20;99.90
45012;DHT22;63444;48.148;11.542;2022-12-29T00:14:09;6.00;99.90
45012;DHT22;63444;48.148;11.542;2022-12-29T00:16:54;6.00;99.90
45012;DHT22;63444;48.148;11.542;2022-12-29T00:19:20;6.10;99.90
45012;DHT22;63444;48.148;11.542;2022-12-29T00:22:04;6.00;99.90
45012;DHT22;63444;48.148;11.542;2022-12-29T00:24:49;6.10;99.90
45012;DHT22;63444;48.148;11.542;2022-12-29T00:27:34;6.10;99.90
45012;DHT22;63444;48.148;11.542;2022-12-29T00:30:21;6.20;99.90
45012;DHT22;63444;48.148;11.542;2022-12-29T00:33:17;6.10;99.90
45012;DHT22;63444;48.148;11.542;2022-12-29T00:38:55;6.20;99.90
45012;DHT22;63444;48.148;11.542;2022-12-29T00:41:41;6.20;99.90
45012;DHT22;63444;48.148;11.542;2022-12-29T00:44:25;6.20;99.90
45012;DHT22;63444;48.148;11.542;2022-12-29T00:46:51;6.20;99.90
45012;DHT22;63444;48.148;11.542;2022-12-29T00:49:16;6.30;99.90
45012;DHT22;63444;48.148;11.542;2022-12-29T00:52:05;6.10;99.90
45012;DHT22;63444;48.148;11.542;2022-12-29T00:54:34;6.20;99.90
45012;DHT22;63444;48.148;11.542;2022-12-29T00:57:00;6.30;99.80
45012;DHT22;63444;48.148;11.542;2022-12-29T00:59:26;6.30;99.70
45012;DHT22;63444;48.148;11.542;2022-12-29T01:01:53;6.20;99.50
45012;DHT22;63444;48.148;11.542;2022-12-29T01:04:24;6.20;99.60
45012;DHT22;63444;48.148;11.542;2022-12-29T01:06:50;6.20;99.70
45012;DHT22;63444;48.148;11.542;2022-12-29T01:09:39;6.20;99.70
45012;DHT22;63444;48.148;11.542;2022-12-29T01:12:23;6.20;99.60
45012;DHT22;63444;48.148;11.542;2022-12-29T01:15:07;6.20;99.70
45012;DHT22;63444;48.148;11.542;2022-12-29T01:17:32;6.20;99.80
45012;DHT22;63444;48.148;11.542;2022-12-29T01:19:58;6.20;99.60
45012;DHT22;63444;48.148;11.542;2022-12-29T01:22:23;6.10;99.50
45012;DHT22;63444;48.148;11.542;2022-12-29T01:24:49;6.20;99.60
45012;DHT22;63444;48.148;11.542;2022-12-29T01:27:15;6.20;99.60
45012;DHT22;63444;48.148;11.542;2022-12-29T01:29:41;6.20;99.70
45012;DHT22;63444;48.148;11.542;2022-12-29T01:32:06;6.20;99.70
45012;DHT22;63444;48.148;11.542;2022-12-29T01:34:44;6.20;99.50
45012;DHT22;63444;48.148;11.542;2022-12-29T01:37:10;6.20;99.50
45012;DHT22;63444;48.148;11.542;2022-12-29T01:39:36;6.20;99.50
45012;DHT22;63444;48.148;11.542;2022-12-29T01:42:03;6.30;99.50
45012;DHT22;63444;48.148;11.542;2022-12-29T01:44:52;6.20;99.60
45012;DHT22;63444;48.148;11.542;2022-12-29T01:47:38;6.20;99.50
45012;DHT22;63444;48.148;11.542;2022-12-29T01:50:09;6.20;99.30
45012;DHT22;63444;48.148;11.542;2022-12-29T01:52:40;6.20;99.20
45012;DHT22;63444;48.148;11.542;2022-12-29T01:55:08;6.10;99.00
45012;DHT22;63444;48.148;11.542;2022-12-29T01:57:38;6.30;99.10
45012;DHT22;63444;48.148;11.542;2022-12-29T02:00:08;6.30;99.10
45012;DHT22;63444;48.148;11.542;2022-12-29T02:02:36;6.30;99.00
45012;DHT22;63444;48.148;11.542;2022-12-29T02:05:11;6.30;99.00
45012;DHT22;63444;48.148;11.542;2022-12-29T02:07:41;6.30;99.00
45012;DHT22;63444;48.148;11.542;2022-12-29T02:10:07;6.30;98.90
45012;DHT22;63444;48.148;11.542;2022-12-29T02:12:33;6.20;98.70
45012;DHT22;63444;48.148;11.542;2022-12-29T02:15:00;6.20;98.80
45012;DHT22;63444;48.148;11.542;2022-12-29T02:18:02;6.30;98.90
45012;DHT22;63444;48.148;11.542;2022-12-29T02:24:05;6.20;98.80
45012;DHT22;63444;48.148;11.542;2022-12-29T02:26:44;6.20;98.70
45012;DHT22;63444;48.148;11.542;2022-12-29T02:29:25;6.30;98.60
45012;DHT22;63444;48.148;11.542;2022-12-29T02:32:05;6.30;98.60
45012;DHT22;63444;48.148;11.542;2022-12-29T02:34:46;6.30;98.60
45012;DHT22;63444;48.148;11.542;2022-12-29T02:37:26;6.30;98.50
45012;DHT22;63444;48.148;11.542;2022-12-29T02:39:57;6.40;98.60
45012;DHT22;63444;48.148;11.542;2022-12-29T02:42:52;6.40;98.20
45012;DHT22;63444;48.148;11.542;2022-12-29T02:45:41;6.40;98.20
45012;DHT22;63444;48.148;11.542;2022-12-29T02:51:00;6.50;98.00
45012;DHT22;63444;48.148;11.542;2022-12-29T02:53:26;6.40;97.90
45012;DHT22;63444;48.148;11.542;2022-12-29T02:56:12;6.40;97.80
45012;DHT22;63444;48.148;11.542;2022-12-29T02:58:38;6.50;97.80
45012;DHT22;63444;48.148;11.542;2022-12-29T03:06:42;6.50;97.50
45012;DHT22;63444;48.148;11.542;2022-12-29T03:15:08;6.60;97.40
45012;DHT22;63444;48.148;11.542;2022-12-29T03:18:08;6.70;97.40
45012;DHT22;63444;48.148;11.542;2022-12-29T03:20:50;6.70;97.20
45012;DHT22;63444;48.148;11.542;2022-12-29T03:23:21;6.80;97.20
45012;DHT22;63444;48.148;11.542;2022-12-29T03:25:51;6.70;97.00
45012;DHT22;63444;48.148;11.542;2022-12-29T03:28:24;6.80;97.00
45012;DHT22;63444;48.148;11.542;2022-12-29T03:30:53;6.80;97.20
45012;DHT22;63444;48.148;11.542;2022-12-29T03:33:21;6.80;96.90
45012;DHT22;63444;48.148;11.542;2022-12-29T03:35:49;6.90;96.80
45012;DHT22;63444;48.148;11.542;2022-12-29T03:38:22;6.90;96.80
45012;DHT22;63444;48.148;11.542;2022-12-29T03:40:52;6.90;96.70
45012;DHT22;63444;48.148;11.542;2022-12-29T03:43:18;7.00;96.60
45012;DHT22;63444;48.148;11.542;2022-12-29T03:45:44;7.00;96.50
45012;DHT22;63444;48.148;11.542;2022-12-29T03:48:09;7.00;96.50
45012;DHT22;63444;48.148;11.542;2022-12-29T03:50:35;7.00;96.50
45012;DHT22;63444;48.148;11.542;2022-12-29T03:53:02;7.00;96.50
45012;DHT22;63444;48.148;11.542;2022-12-29T03:55:27;7.10;96.50
45012;DHT22;63444;48.148;11.542;2022-12-29T03:57:53;7.10;96.50
45012;DHT22;63444;48.148;11.542;2022-12-29T04:00:19;7.10;96.40
45012;DHT22;63444;48.148;11.542;2022-12-29T04:02:46;7.30;96.50
45012;DHT22;63444;48.148;11.542;2022-12-29T04:05:12;7.20;96.50
45012;DHT22;63444;48.148;11.542;2022-12-29T04:07:38;7.20;96.30
45012;DHT22;63444;48.148;11.542;2022-12-29T04:10:04;7.20;96.30
45012;DHT22;63444;48.148;11.542;2022-12-29T04:12:30;7.20;96.10
45012;DHT22;63444;48.148;11.542;2022-12-29T04:14:55;7.10;96.30
45012;DHT22;63444;48.148;11.542;2022-12-29T04:17:21;7.20;96.10
45012;DHT22;63444;48.148;11.542;2022-12-29T04:19:46;7.20;96.00
45012;DHT22;63444;48.148;11.542;2022-12-29T04:22:12;7.20;96.00
45012;DHT22;63444;48.148;11.542;2022-12-29T04:24:38;7.20;96.00
45012;DHT22;63444;48.148;11.542;2022-12-29T04:27:04;7.30;96.00
45012;DHT22;63444;48.148;11.542;2022-12-29T04:29:29;7.30;96.10
45012;DHT22;63444;48.148;11.542;2022-12-29T04:31:56;7.30;96.00
45012;DHT22;63444;48.148;11.542;2022-12-29T04:34:21;7.40;96.00
45012;DHT22;63444;48.148;11.542;2022-12-29T04:36:47;7.30;96.10
45012;DHT22;63444;48.148;11.542;2022-12-29T04:39:13;7.30;96.00
45012;DHT22;63444;48.148;11.542;2022-12-29T04:41:38;7.30;95.90
45012;DHT22;63444;48.148;11.542;2022-12-29T04:44:04;7.30;96.00
45012;DHT22;63444;48.148;11.542;2022-12-29T04:46:30;7.40;95.90
45012;DHT22;63444;48.148;11.542;2022-12-29T04:48:56;7.30;95.80
45012;DHT22;63444;48.148;11.542;2022-12-29T04:51:23;7.40;95.70
45012;DHT22;63444;48.148;11.542;2022-12-29T04:53:49;7.30;95.80
45012;DHT22;63444;48.148;11.542;2022-12-29T04:56:15;7.40;95.70
45012;DHT22;63444;48.148;11.542;2022-12-29T04:58:40;7.40;95.80
45012;DHT22;63444;48.148;11.542;2022-12-29T05:01:06;7.60;96.10
45012;DHT22;63444;48.148;11.542;2022-12-29T05:03:33;7.40;95.60
45012;DHT22;63444;48.148;11.542;2022-12-29T05:05:58;7.40;95.50
45012;DHT22;63444;48.148;11.542;2022-12-29T05:08:24;7.40;95.60
45012;DHT22;63444;48.148;11.542;2022-12-29T05:10:50;7.50;95.50
45012;DHT22;63444;48.148;11.542;2022-12-29T05:13:18;7.50;95.40
45012;DHT22;63444;48.148;11.542;2022-12-29T05:15:53;7.50;95.40
45012;DHT22;63444;48.148;11.542;2022-12-29T05:18:22;7.50;95.50
45012;DHT22;63444;48.148;11.542;2022-12-29T05:20:50;7.50;95.50
45012;DHT22;63444;48.148;11.542;2022-12-29T05:23:18;7.50;95.30
45012;DHT22;63444;48.148;11.542;2022-12-29T05:25:46;7.50;95.50
45012;DHT22;63444;48.148;11.542;2022-12-29T05:28:13;7.50;95.30
45012;DHT22;63444;48.148;11.542;2022-12-29T05:30:40;7.60;95.40
45012;DHT22;63444;48.148;11.542;2022-12-29T05:33:05;7.50;95.40
45012;DHT22;63444;48.148;11.542;2022-12-29T05:35:32;7.50;95.50
45012;DHT22;63444;48.148;11.542;2022-12-29T05:37:58;7.50;95.70
45012;DHT22;63444;48.148;11.542;2022-12-29T05:40:24;7.60;95.60
45012;DHT22;63444;48.148;11.542;2022-12-29T05:42:50;7.60;95.50
45012;DHT22;63444;48.148;11.542;2022-12-29T05:45:15;7.70;95.50
45012;DHT22;63444;48.148;11.542;2022-12-29T05:47:41;7.60;95.30
45012;DHT22;63444;48.148;11.542;2022-12-29T05:50:08;7.60;95.30
45012;DHT22;63444;48.148;11.542;2022-12-29T05:52:34;7.60;95.50
45012;DHT22;63444;48.148;11.542;2022-12-29T05:54:59;7.60;95.40
45012;DHT22;63444;48.148;11.542;2022-12-29T05:57:26;7.60;95.30
45012;DHT22;63444;48.148;11.542;2022-12-29T05:59:51;7.70;95.50
45012;DHT22;63444;48.148;11.542;2022-12-29T06:02:18;7.60;95.20
45012;DHT22;63444;48.148;11.542;2022-12-29T06:04:44;7.60;95.10
45012;DHT22;63444;48.148;11.542;2022-12-29T06:07:11;7.60;95.30
45012;DHT22;63444;48.148;11.542;2022-12-29T06:09:37;7.60;95.30
45012;DHT22;63444;48.148;11.542;2022-12-29T06:12:03;7.70;95.60
45012;DHT22;63444;48.148;11.542;2022-12-29T06:14:29;7.70;95.40
45012;DHT22;63444;48.148;11.542;2022-12-29T06:16:55;7.80;95.40
45012;DHT22;63444;48.148;11.542;2022-12-29T06:19:20;7.70;95.30
45012;DHT22;63444;48.148;11.542;2022-12-29T06:21:46;7.70;95.40
45012;DHT22;63444;48.148;11.542;2022-12-29T06:24:12;7.70;95.40
45012;DHT22;63444;48.148;11.542;2022-12-29T06:26:45;7.70;95.40
45012;DHT22;63444;48.148;11.542;2022-12-29T06:29:12;7.70;95.40
45012;DHT22;63444;48.148;11.542;2022-12-29T06:31:44;7.80;95.50
45012;DHT22;63444;48.148;11.542;2022-12-29T06:34:11;7.80;95.50
45012;DHT22;63444;48.148;11.542;2022-12-29T06:36:37;7.80;95.50
45012;DHT22;63444;48.148;11.542;2022-12-29T06:39:03;7.70;95.50
45012;DHT22;63444;48.148;11.542;2022-12-29T06:41:29;7.80;96.00
45012;DHT22;63444;48.148;11.542;2022-12-29T06:43:55;7.70;95.70
45012;DHT22;63444;48.148;11.542;2022-12-29T06:46:22;7.80;95.70
45012;DHT22;63444;48.148;11.542;2022-12-29T06:48:48;7.70;95.70
45012;DHT22;63444;48.148;11.542;2022-12-29T06:51:16;7.70;95.80
45012;DHT22;63444;48.148;11.542;2022-12-29T06:53:42;7.70;95.90
45012;DHT22;63444;48.148;11.542;2022-12-29T06:56:08;7.70;95.90
45012;DHT22;63444;48.148;11.542;2022-12-29T06:58:33;7.70;95.90
45012;DHT22;63444;48.148;11.542;2022-12-29T07:00:59;7.70;95.90
45012;DHT22;63444;48.148;11.542;2022-12-29T07:03:24;7.60;95.80
45012;DHT22;63444;48.148;11.542;2022-12-29T07:05:52;7.60;96.00
45012;DHT22;63444;48.148;11.542;2022-12-29T07:08:20;7.60;95.80
45012;DHT22;63444;48.148;11.542;2022-12-29T07:10:46;7.60;95.60
45012;DHT22;63444;48.148;11.542;2022-12-29T07:13:11;7.60;96.00
45012;DHT22;63444;48.148;11.542;2022-12-29T07:15:37;7.60;95.40
45012;DHT22;63444;48.148;11.542;2022-12-29T07:18:05;7.60;95.30
45012;DHT22;63444;48.148;11.542;2022-12-29T07:20:31;7.60;95.30
45012;DHT22;63444;48.148;11.542;2022-12-29T07:22:58;7.60;95.30
45012;DHT22;63444;48.148;11.542;2022-12-29T07:25:23;7.70;95.50
45012;DHT22;63444;48.148;11.542;2022-12-29T07:27:50;7.70;95.40
45012;DHT22;63444;48.148;11.542;2022-12-29T07:30:16;7.70;95.30
45012;DHT22;63444;48.148;11.542;2022-12-29T07:32:41;7.70;95.30
45012;DHT22;63444;48.148;11.542;2022-12-29T07:35:09;7.70;95.30
45012;DHT22;63444;48.148;11.542;2022-12-29T07:37:43;7.70;95.10
45012;DHT22;63444;48.148;11.542;2022-12-29T07:40:13;7.70;95.30
45012;DHT22;63444;48.148;11.542;2022-12-29T07:42:39;7.70;95.20
45012;DHT22;63444;48.148;11.542;2022-12-29T07:45:05;7.90;95.40
45012;DHT22;63444;48.148;11.542;2022-12-29T07:47:32;7.80;95.20
45012;DHT22;63444;48.148;11.542;2022-12-29T07:49:57;7.80;95.70
45012;DHT22;63444;48.148;11.542;2022-12-29T07:52:26;7.80;95.10
45012;DHT22;63444;48.148;11.542;2022-12-29T07:54:53;7.90;94.90
45012;DHT22;63444;48.148;11.542;2022-12-29T07:57:19;7.90;94.60
45012;DHT22;63444;48.148;11.542;2022-12-29T07:59:44;8.10;94.40
45012;DHT22;63444;48.148;11.542;2022-12-29T08:02:11;8.00;94.40
45012;DHT22;63444;48.148;11.542;2022-12-29T08:04:38;8.10;94.20
45012;DHT22;63444;48.148;11.542;2022-12-29T08:07:09;8.20;94.00
45012;DHT22;63444;48.148;11.542;2022-12-29T08:09:38;8.30;94.10
45012;DHT22;63444;48.148;11.542;2022-12-29T08:12:05;8.30;93.90
45012;DHT22;63444;48.148;11.542;2022-12-29T08:14:30;8.30;94.00
45012;DHT22;63444;48.148;11.542;2022-12-29T08:16:56;8.30;93.70
45012;DHT22;63444;48.148;11.542;2022-12-29T08:19:23;8.30;93.90
45012;DHT22;63444;48.148;11.542;2022-12-29T08:21:48;8.20;93.70
45012;DHT22;63444;48.148;11.542;2022-12-29T08:24:14;8.30;93.70
45012;DHT22;63444;48.148;11.542;2022-12-29T08:26:40;8.40;93.60
45012;DHT22;63444;48.148;11.542;2022-12-29T08:29:06;8.40;93.70
45012;DHT22;63444;48.148;11.542;2022-12-29T08:31:32;8.40;93.70
45012;DHT22;63444;48.148;11.542;2022-12-29T08:33:57;8.50;93.60
45012;DHT22;63444;48.148;11.542;2022-12-29T08:36:27;8.50;93.60
45012;DHT22;63444;48.148;11.542;2022-12-29T08:38:53;8.50;93.40
45012;DHT22;63444;48.148;11.542;2022-12-29T08:41:20;8.60;93.30
45012;DHT22;63444;48.148;11.542;2022-12-29T08:43:49;8.60;93.30
45012;DHT22;63444;48.148;11.542;2022-12-29T08:46:17;8.70;93.30
45012;DHT22;63444;48.148;11.542;2022-12-29T08:48:42;8.80;93.50
45012;DHT22;63444;48.148;11.542;2022-12-29T08:51:08;8.80;93.40
45012;DHT22;63444;48.148;11.542;2022-12-29T08:53:34;8.90;93.30
45012;DHT22;63444;48.148;11.542;2022-12-29T08:56:00;9.00;93.10
45012;DHT22;63444;48.148;11.542;2022-12-29T08:58:27;9.10;92.80
45012;DHT22;63444;48.148;11.542;2022-12-29T09:00:54;9.10;92.80
45012;DHT22;63444;48.148;11.542;2022-12-29T09:03:20;9.10;92.80
45012;DHT22;63444;48.148;11.542;2022-12-29T09:05:50;9.20;92.70
45012;DHT22;63444;48.148;11.542;2022-12-29T09:08:16;9.20;92.90
45012;DHT22;63444;48.148;11.542;2022-12-29T09:10:42;9.30;91.80
45012;DHT22;63444;48.148;11.542;2022-12-29T09:13:08;9.40;91.90
45012;DHT22;63444;48.148;11.542;2022-12-29T09:15:33;9.50;91.60
45012;DHT22;63444;48.148;11.542;2022-12-29T09:18:06;9.60;91.60
45012;DHT22;63444;48.148;11.542;2022-12-29T09:20:32;9.80;91.70
45012;DHT22;63444;48.148;11.542;2022-12-29T09:22:58;9.90;91.50
45012;DHT22;63444;48.148;11.542;2022-12-29T09:25:24;9.90;91.60
45012;DHT22;63444;48.148;11.542;2022-12-29T09:27:53;9.90;91.80
45012;DHT22;63444;48.148;11.542;2022-12-29T09:30:20;9.90;92.10
45012;DHT22;63444;48.148;11.542;2022-12-29T09:32:46;10.00;91.40
45012;DHT22;63444;48.148;11.542;2022-12-29T09:35:14;10.60;91.00
45012;DHT22;63444;48.148;11.542;2022-12-29T09:37:40;10.30;90.60
45012;DHT22;63444;48.148;11.542;2022-12-29T09:40:09;10.50;90.60
45012;DHT22;63444;48.148;11.542;2022-12-29T09:42:55;10.50;90.40
45012;DHT22;63444;48.148;11.542;2022-12-29T09:45:33;10.80;90.30
45012;DHT22;63444;48.148;11.542;2022-12-29T09:48:04;10.70;90.20
45012;DHT22;63444;48.148;11.542;2022-12-29T09:50:35;10.70;90.20
45012;DHT22;63444;48.148;11.542;2022-12-29T09:53:15;10.70;90.20
45012;DHT22;63444;48.148;11.542;2022-12-29T09:55:53;10.70;90.20
45012;DHT22;63444;48.148;11.542;2022-12-29T09:58:28;10.80;90.20
45012;DHT22;63444;48.148;11.542;2022-12-29T10:03:47;10.70;90.60
45012;DHT22;63444;48.148;11.542;2022-12-29T10:07:03;10.60;90.40
45012;DHT22;63444;48.148;11.542;2022-12-29T10:10:10;10.50;90.40
45012;DHT22;63444;48.148;11.542;2022-12-29T10:13:19;10.50;90.20
45012;DHT22;63444;48.148;11.542;2022-12-29T10:16:01;10.40;90.10
45012;DHT22;63444;48.148;11.542;2022-12-29T10:23:54;10.50;90.00
45012;DHT22;63444;48.148;11.542;2022-12-29T10:26:23;10.50;90.00
45012;DHT22;63444;48.148;11.542;2022-12-29T10:29:02;10.60;89.20
45012;DHT22;63444;48.148;11.542;2022-12-29T10:31:46;10.60;88.80
45012;DHT22;63444;48.148;11.542;2022-12-29T10:34:25;10.70;88.50
45012;DHT22;63444;48.148;11.542;2022-12-29T10:37:02;10.70;88.20
45012;DHT22;63444;48.148;11.542;2022-12-29T10:39:33;10.80;88.40
45012;DHT22;63444;48.148;11.542;2022-12-29T10:42:18;10.90;88.70
45012;DHT22;63444;48.148;11.542;2022-12-29T10:44:46;11.00;88.60
45012;DHT22;63444;48.148;11.542;2022-12-29T10:47:16;11.20;88.40
45012;DHT22;63444;48.148;11.542;2022-12-29T10:49:45;11.40;88.80
45012;DHT22;63444;48.148;11.542;2022-12-29T10:52:13;11.70;88.30
45012;DHT22;63444;48.148;11.542;2022-12-29T10:57:25;12.10;87.60
45012;DHT22;63444;48.148;11.542;2022-12-29T10:59:52;12.20;86.90
45012;DHT22;63444;48.148;11.542;2022-12-29T11:02:43;12.40;86.50
45012;DHT22;63444;48.148;11.542;2022-12-29T11:05:19;12.70;86.80
45012;DHT22;63444;48.148;11.542;2022-12-29T11:07:50;13.00;85.80
45012;DHT22;63444;48.148;11.542;2022-12-29T11:13:03;13.30;85.30
45012;DHT22;63444;48.148;11.542;2022-12-29T11:15:47;13.60;84.00
45012;DHT22;63444;48.148;11.542;2022-12-29T11:18:31;13.80;83.60
45012;DHT22;63444;48.148;11.542;2022-12-29T11:21:00;14.00;83.00
45012;DHT22;63444;48.148;11.542;2022-12-29T11:23:40;14.30;83.00
45012;DHT22;63444;48.148;11.542;2022-12-29T11:26:23;14.80;81.90
45012;DHT22;63444;48.148;11.542;2022-12-29T11:34:07;16.50;78.70
45012;DHT22;63444;48.148;11.542;2022-12-29T11:36:35;16.60;76.80
45012;DHT22;63444;48.148;11.542;2022-12-29T11:39:02;16.80;77.10
45012;DHT22;63444;48.148;11.542;2022-12-29T11:41:29;17.20;75.70
45012;DHT22;63444;48.148;11.542;2022-12-29T11:44:03;17.80;75.30
45012;DHT22;63444;48.148;11.542;2022-12-29T11:46:33;18.40;71.70
45012;DHT22;63444;48.148;11.542;2022-12-29T11:49:00;18.30;70.40
45012;DHT22;63444;48.148;11.542;2022-12-29T11:51:41;18.00;69.80
45012;DHT22;63444;48.148;11.542;2022-12-29T11:54:21;18.40;72.20
45012;DHT22;63444;48.148;11.542;2022-12-29T11:56:48;19.00;68.70
45012;DHT22;63444;48.148;11.542;2022-12-29T11:59:36;19.60;68.00
45012;DHT22;63444;48.148;11.542;2022-12-29T12:05:41;19.90;64.50
45012;DHT22;63444;48.148;11.542;2022-12-29T12:08:37;19.30;63.10
45012;DHT22;63444;48.148;11.542;2022-12-29T12:11:33;18.80;63.90
45012;DHT22;63444;48.148;11.542;2022-12-29T12:14:08;18.40;64.20
45012;DHT22;63444;48.148;11.542;2022-12-29T12:16:41;18.00;66.40
45012;DHT22;63444;48.148;11.542;2022-12-29T12:22:07;17.50;66.10
45012;DHT22;63444;48.148;11.542;2022-12-29T12:24:42;17.30;67.00
45012;DHT22;63444;48.148;11.542;2022-12-29T12:27:43;16.70;67.60
45012;DHT22;63444;48.148;11.542;2022-12-29T12:30:22;16.60;68.70
45012;DHT22;63444;48.148;11.542;2022-12-29T12:43:25;16.10;72.10
45012;DHT22;63444;48.148;11.542;2022-12-29T12:49:07;15.90;73.20
45012;DHT22;63444;48.148;11.542;2022-12-29T13:16:48;15.10;78.50
45012;DHT22;63444;48.148;11.542;2022-12-29T13:25:02;15.00;80.10
45012;DHT22;63444;48.148;11.542;2022-12-29T13:30:09;14.90;81.00
45012;DHT22;63444;48.148;11.542;2022-12-29T13:35:41;14.80;81.90
45012;DHT22;63444;48.148;11.542;2022-12-29T13:40:49;14.70;83.90
45012;DHT22;63444;48.148;11.542;2022-12-29T13:43:16;14.50;84.30
45012;DHT22;63444;48.148;11.542;2022-12-29T13:45:45;14.50;84.70
45012;DHT22;63444;48.148;11.542;2022-12-29T13:48:19;14.40;85.20
45012;DHT22;63444;48.148;11.542;2022-12-29T13:50:58;14.30;85.50
45012;DHT22;63444;48.148;11.542;2022-12-29T13:56:24;14.20;86.20
45012;DHT22;63444;48.148;11.542;2022-12-29T13:58:56;14.10;86.80
45012;DHT22;63444;48.148;11.542;2022-12-29T14:04:25;14.00;87.40
45012;DHT22;63444;48.148;11.542;2022-12-29T14:07:15;14.00;88.00
45012;DHT22;63444;48.148;11.542;2022-12-29T14:09:54;13.90;88.10
45012;DHT22;63444;48.148;11.542;2022-12-29T14:15:06;13.70;89.40
45012;DHT22;63444;48.148;11.542;2022-12-29T14:17:40;13.70;89.80
45012;DHT22;63444;48.148;11.542;2022-12-29T14:20:20;13.70;90.10
45012;DHT22;63444;48.148;11.542;2022-12-29T14:26:00;13.60;90.40
45012;DHT22;63444;48.148;11.542;2022-12-29T14:28:47;13.70;90.50
45012;DHT22;63444;48.148;11.542;2022-12-29T14:36:55;13.60;90.70
45012;DHT22;63444;48.148;11.542;2022-12-29T14:39:41;13.70;90.80
45012;DHT22;63444;48.148;11.542;2022-12-29T14:52:48;13.70;90.70
45012;DHT22;63444;48.148;11.542;2022-12-29T14:57:43;13.70;88.90
45012;DHT22;63444;48.148;11.542;2022-12-29T15:00:25;13.60;87.30
45012;DHT22;63444;48.148;11.542;2022-12-29T15:08:27;13.50;86.00
45012;DHT22;63444;48.148;11.542;2022-12-29T15:13:44;13.50;84.60
45012;DHT22;63444;48.148;11.542;2022-12-29T15:16:34;13.40;84.30
45012;DHT22;63444;48.148;11.542;2022-12-29T15:19:02;13.30;83.50
45012;DHT22;63444;48.148;11.542;2022-12-29T15:21:33;13.40;83.80
45012;DHT22;63444;48.148;11.542;2022-12-29T15:24:00;13.30;84.20
45012;DHT22;63444;48.148;11.542;2022-12-29T15:26:44;13.30;84.20
45012;DHT22;63444;48.148;11.542;2022-12-29T15:29:39;13.30;84.00
45012;DHT22;63444;48.148;11.542;2022-12-29T15:32:19;13.30;83.90
45012;DHT22;63444;48.148;11.542;2022-12-29T15:34:47;13.20;84.30
45012;DHT22;63444;48.148;11.542;2022-12-29T15:37:28;13.10;84.30
45012;DHT22;63444;48.148;11.542;2022-12-29T15:39:55;13.10;84.20
45012;DHT22;63444;48.148;11.542;2022-12-29T15:45:32;12.90;84.00
45012;DHT22;63444;48.148;11.542;2022-12-29T15:47:59;12.90;84.30
45012;DHT22;63444;48.148;11.542;2022-12-29T15:50:35;12.80;84.80
45012;DHT22;63444;48.148;11.542;2022-12-29T15:53:03;12.70;84.70
45012;DHT22;63444;48.148;11.542;2022-12-29T15:55:38;12.60;84.90
45012;DHT22;63444;48.148;11.542;2022-12-29T15:58:20;12.50;85.10
45012;DHT22;63444;48.148;11.542;2022-12-29T16:01:00;12.50;85.60
45012;DHT22;63444;48.148;11.542;2022-12-29T16:03:33;12.60;85.40
45012;DHT22;63444;48.148;11.542;2022-12-29T16:06:25;12.50;85.10
45012;DHT22;63444;48.148;11.542;2022-12-29T16:09:04;12.50;85.20
45012;DHT22;63444;48.148;11.542;2022-12-29T16:11:38;12.50;85.20
45012;DHT22;63444;48.148;11.542;2022-12-29T16:14:10;12.40;85.10
45012;DHT22;63444;48.148;11.542;2022-12-29T16:16:39;12.40;85.20
45012;DHT22;63444;48.148;11.542;2022-12-29T16:19:32;12.30;85.70
45012;DHT22;63444;48.148;11.542;2022-12-29T16:21:59;12.30;86.40
45012;DHT22;63444;48.148;11.542;2022-12-29T16:24:30;12.30;86.40
45012;DHT22;63444;48.148;11.542;2022-12-29T16:27:09;12.30;86.70
45012;DHT22;63444;48.148;11.542;2022-12-29T16:29:35;12.30;87.40
45012;DHT22;63444;48.148;11.542;2022-12-29T16:32:02;12.20;88.20
45012;DHT22;63444;48.148;11.542;2022-12-29T16:37:04;12.10;89.40
45012;DHT22;63444;48.148;11.542;2022-12-29T16:39:33;12.10;90.10
45012;DHT22;63444;48.148;11.542;2022-12-29T16:42:32;12.10;90.30
45012;DHT22;63444;48.148;11.542;2022-12-29T16:44:47;12.10;90.50
45012;DHT22;63444;48.148;11.542;2022-12-29T16:49:42;12.10;90.60
45012;DHT22;63444;48.148;11.542;2022-12-29T16:52:12;12.20;90.70
45012;DHT22;63444;48.148;11.542;2022-12-29T16:54:39;12.10;90.70
45012;DHT22;63444;48.148;11.542;2022-12-29T16:57:07;12.10;90.80
45012;DHT22;63444;48.148;11.542;2022-12-29T16:59:41;12.20;90.90
45012;DHT22;63444;48.148;11.542;2022-12-29T17:02:15;12.10;91.00
45012;DHT22;63444;48.148;11.542;2022-12-29T17:04:42;12.10;91.60
45012;DHT22;63444;48.148;11.542;2022-12-29T17:07:22;12.10;91.70
45012;DHT22;63444;48.148;11.542;2022-12-29T17:10:04;12.00;91.90
45012;DHT22;63444;48.148;11.542;2022-12-29T17:12:43;12.10;92.00
45012;DHT22;63444;48.148;11.542;2022-12-29T17:15:31;12.20;92.10
45012;DHT22;63444;48.148;11.542;2022-12-29T17:18:01;12.40;92.10
45012;DHT22;63444;48.148;11.542;2022-12-29T17:20:30;12.40;92.10
45012;DHT22;63444;48.148;11.542;2022-12-29T17:22:58;12.50;92.20
45012;DHT22;63444;48.148;11.542;2022-12-29T17:25:37;12.60;92.10
45012;DHT22;63444;48.148;11.542;2022-12-29T17:28:06;12.70;92.20
45012;DHT22;63444;48.148;11.542;2022-12-29T17:30:35;12.80;92.30
45012;DHT22;63444;48.148;11.542;2022-12-29T17:33:23;12.80;92.50
45012;DHT22;63444;48.148;11.542;2022-12-29T17:35:48;12.90;92.50
45012;DHT22;63444;48.148;11.542;2022-12-29T17:38:25;12.90;92.30
45012;DHT22;63444;48.148;11.542;2022-12-29T17:40:52;12.90;92.40
45012;DHT22;63444;48.148;11.542;2022-12-29T17:43:17;12.90;92.40
45012;DHT22;63444;48.148;11.542;2022-12-29T17:45:56;12.90;92.20
45012;DHT22;63444;48.148;11.542;2022-12-29T17:48:23;12.90;92.20
45012;DHT22;63444;48.148;11.542;2022-12-29T17:50:51;12.80;92.30
45012;DHT22;63444;48.148;11.542;2022-12-29T17:53:25;12.80;92.40
45012;DHT22;63444;48.148;11.542;2022-12-29T17:55:53;12.70;92.60
45012;DHT22;63444;48.148;11.542;2022-12-29T17:58:21;12.70;92.80
45012;DHT22;63444;48.148;11.542;2022-12-29T18:00:49;12.60;93.00
45012;DHT22;63444;48.148;11.542;2022-12-29T18:03:17;12.50;93.30
45012;DHT22;63444;48.148;11.542;2022-12-29T18:05:43;12.50;93.40
45012;DHT22;63444;48.148;11.542;2022-12-29T18:08:10;12.50;93.30
45012;DHT22;63444;48.148;11.542;2022-12-29T18:10:38;12.50;93.30
45012;DHT22;63444;48.148;11.542;2022-12-29T18:13:04;12.40;93.10
45012;DHT22;63444;48.148;11.542;2022-12-29T18:15:32;12.40;93.10
45012;DHT22;63444;48.148;11.542;2022-12-29T18:18:00;12.30;92.90